Aviation Digital Data Service (ADDS)

Output produced by TAFs form (2258 UTC 30 July 2015)
found at http://www.aviationweather.gov/adds/tafs/
 
KRIC 302227Z 3022/3118 20008KT P6SM SCT040 BKN120 
     TEMPO 3100/3102 VRB20G35KT 2SM TSRA BKN040CB 
     FM310200 24005KT P6SM SCT030 BKN080 
     FM310600 35005KT P6SM SKC